Huvudsida
METAR-TAF:

METAR-TAF

Flygplatser :

Tromsø flygplats

Tromsø, Norge

latitud: 69-41N, longitud: 018-55E, höjd: 1 m

Aktuellt väderrapport

Denna rapport gjordes för 50 minuter sedan, klockan 21:50 UTC
Vind 3 kt från väst/sydväst
Temperatur 10°C
Fuktighet 93%
Tryck 998 hPa
Sikt 10 km eller mer
Spridda moln på en höjd av 1300 ft
Brutna moln på en höjd av 2600 ft

METAR: ENTC 202150Z 25003KT 9999 SCT013 BKN026 10/09 Q0998 RMK WIND 2600FT 19008KT

Tid: 00:40 (22:40 UTC)

Väderprognos

Denna rapport gjordes för 3 timmar och 30 minuter sedan, klockan 19:10 UTC
Prognos gäller från 20 kl. 19 UTC till 21 kl. 18 UTC
Vind 8 kt från väst
Sikt 10 km eller mer
Få moln på en höjd av 1000 ft
Brutna moln på en höjd av 2000 ft
Temporärt
från 20 kl. 19 UTC till 21 kl. 09 UTC
Sikt: 4000 m
Brutna moln på en höjd av 800 ft
Få moln på en höjd av 1500 ft, Cumulonimbus.
regnskurar,

TAF: ENTC 201910Z 2019/2118 26008KT 9999 FEW010 BKN020 TEMPO 2019/2109 4000 SHRA BKN008 FEW015CB

Aktuella väderrapporter och prognoser från 4000 flygplatser (METAR- och TAF-rapporter).

De tillgängliga stationerna syns som gula och röda prickar på kartan.

För musen över prickarna för att se namnen på stationerna.

Klicka sedan för att få väderrapporter och prognoser.

För att ändra kartan: Klicka på de gröna knapparna med ett svart kors på för att zooma in; den gröna knappen med ett streck på för att zooma ut; eller på de gröna pilarna för angränsande kartor.


METAR-TAF: